KDED/DED METAR and TAF weather

Enter ICAO airport designator
Station Type Date Time Source
KDED METAR 2018/06/25 02:15 UTC NOAA

KDED 250215Z AUTO 15004KT 10SM CLR 27/24 A3009 RMK AO2


Station Type Date Time Source
KDED Decoded METAR 2018/06/25 02:15 UTC NOAA

Station name not available
Jun 24, 2018 - 10:15 PM EDT / 2018.06.25 0215 UTC
Wind: from the SSE (150 degrees) at 5 MPH (4 KT):0
Visibility: 10 mile(s):0
Sky conditions: clear
Temperature: 80 F (27 C)
Dew Point: 75 F (24 C)
Relative Humidity: 83%
Pressure (altimeter): 30.09 in. Hg (1018 hPa)
ob: KDED 250215Z AUTO 15004KT 10SM CLR 27/24 A3009 RMK AO2
cycle: 2

Station Type Date Time Source
KDED TAF UTC NOAA

Error!


Example: see airport list